createdAt,value
2019-06-27T00:00:51.896Z,64.16
2019-06-27T00:05:55.478Z,63.06
2019-06-27T00:10:58.939Z,63.66
2019-06-27T00:16:02.362Z,63.32
2019-06-27T00:21:05.804Z,64.43
2019-06-27T00:26:09.222Z,64.43
2019-06-27T00:31:12.663Z,67.08
2019-06-27T00:36:16.099Z,67.14
2019-06-27T00:41:19.736Z,67.14
2019-06-27T00:46:23.160Z,67.79
2019-06-27T00:51:26.581Z,68.24
2019-06-27T00:56:29.995Z,68.73
2019-06-27T01:01:33.403Z,67.78
2019-06-27T01:06:37.475Z,66.51
2019-06-27T01:11:40.824Z,65.54
2019-06-27T01:16:44.315Z,66.21
2019-06-27T01:21:47.733Z,67.43
2019-06-27T01:26:51.177Z,67.58
2019-06-27T01:31:54.590Z,66.58
2019-06-27T01:36:58.016Z,66.29
2019-06-27T01:42:01.514Z,66.93
2019-06-27T01:47:06.181Z,67.88
2019-06-27T01:52:09.689Z,68.43
2019-06-27T01:57:13.113Z,70.30
2019-06-27T02:02:16.671Z,69.40
2019-06-27T02:07:20.096Z,68.64
2019-06-27T02:12:23.536Z,67.88
2019-06-27T02:17:26.964Z,69.50
2019-06-27T02:22:30.395Z,66.84
2019-06-27T02:27:33.820Z,66.62
2019-06-27T02:32:37.239Z,66.33
2019-06-27T02:37:40.659Z,65.59
2019-06-27T02:42:44.085Z,65.81
2019-06-27T02:47:47.505Z,65.54
2019-06-27T02:52:50.907Z,65.56
2019-06-27T02:57:54.400Z,66.07
2019-06-27T03:02:57.947Z,65.44
2019-06-27T03:08:01.641Z,65.64
2019-06-27T03:13:05.166Z,65.33
2019-06-27T03:18:08.600Z,65.22
2019-06-27T03:23:12.016Z,65.18
2019-06-27T03:28:15.418Z,65.18
2019-06-27T03:33:18.863Z,64.95
2019-06-27T03:38:22.289Z,64.07
2019-06-27T03:43:25.728Z,64.16
2019-06-27T03:48:29.153Z,64.36
2019-06-27T03:53:32.601Z,63.37
2019-06-27T03:58:36.023Z,63.88
2019-06-27T04:03:42.802Z,63.92
2019-06-27T04:08:44.579Z,64.08
2019-06-27T04:13:48.838Z,63.96
2019-06-27T04:18:52.291Z,63.96
2019-06-27T04:23:55.697Z,64.79
2019-06-27T04:28:59.370Z,64.79
2019-06-27T04:34:02.787Z,66.43
2019-06-27T04:39:06.297Z,68.12
2019-06-27T04:44:09.722Z,67.90
2019-06-27T04:49:14.058Z,68.27
2019-06-27T04:54:17.645Z,68.75
2019-06-27T04:59:21.090Z,70.14
2019-06-27T05:04:24.511Z,69.86
2019-06-27T05:09:27.956Z,69.77
2019-06-27T05:14:32.653Z,68.20
2019-06-27T05:19:37.625Z,68.31
2019-06-27T05:24:41.038Z,69.46
2019-06-27T05:29:44.464Z,68.70
2019-06-27T05:34:47.907Z,69.17
2019-06-27T05:39:51.342Z,69.09
2019-06-27T05:44:54.743Z,68.84
2019-06-27T05:49:58.156Z,69.62
2019-06-27T05:55:01.751Z,67.87
2019-06-27T06:00:07.377Z,66.58
2019-06-27T06:05:10.861Z,66.54
2019-06-27T06:10:14.517Z,66.86
2019-06-27T06:15:19.629Z,65.32
2019-06-27T06:20:23.238Z,65.71
2019-06-27T06:25:26.680Z,62.82
2019-06-27T06:30:43.719Z,64.14
2019-06-27T06:35:35.423Z,63.84
2019-06-27T06:40:38.843Z,62.65
2019-06-27T06:45:42.271Z,63.51
2019-06-27T06:50:45.703Z,61.43
2019-06-27T06:55:49.116Z,60.12
2019-06-27T07:01:01.639Z,59.00
2019-06-27T07:05:57.741Z,58.15
2019-06-27T07:11:01.248Z,57.79
2019-06-27T07:16:05.004Z,56.84
2019-06-27T07:21:09.632Z,57.51
2019-06-27T07:26:13.146Z,54.78
2019-06-27T07:31:18.302Z,53.69
2019-06-27T07:36:21.867Z,54.10
2019-06-27T07:41:25.289Z,53.47
2019-06-27T07:46:29.031Z,50.67
2019-06-27T07:51:32.465Z,49.18
2019-06-27T07:56:35.939Z,47.45
2019-06-27T08:01:39.369Z,49.47
2019-06-27T08:06:42.825Z,46.57
2019-06-27T08:11:46.219Z,48.42
2019-06-27T08:16:49.655Z,46.91
2019-06-27T08:21:53.107Z,46.31
2019-06-27T08:26:56.598Z,46.22
2019-06-27T08:32:00.057Z,44.25
2019-06-27T08:37:03.755Z,44.37
2019-06-27T08:42:07.171Z,43.89
2019-06-27T08:47:10.680Z,42.27
2019-06-27T08:52:14.126Z,42.00
2019-06-27T08:57:17.562Z,41.75
2019-06-27T09:02:20.995Z,43.58
2019-06-27T09:07:24.533Z,43.68
2019-06-27T09:12:28.014Z,43.10
2019-06-27T09:17:31.455Z,40.59
2019-06-27T09:22:34.891Z,40.43
2019-06-27T09:27:39.223Z,41.24
2019-06-27T09:32:42.678Z,40.29
2019-06-27T09:37:46.110Z,39.28
2019-06-27T09:42:49.606Z,38.14
2019-06-27T09:47:53.123Z,36.38
2019-06-27T09:52:56.543Z,36.72
2019-06-27T09:57:59.967Z,38.48
2019-06-27T10:03:03.412Z,36.52
2019-06-27T10:08:06.890Z,35.59
2019-06-27T10:13:10.346Z,35.33
2019-06-27T10:18:13.755Z,37.44
2019-06-27T10:23:17.170Z,34.82
2019-06-27T10:28:20.608Z,35.09
2019-06-27T10:33:24.029Z,36.69
2019-06-27T10:38:27.468Z,37.70
2019-06-27T10:43:30.885Z,34.03
2019-06-27T10:48:34.317Z,34.65
2019-06-27T10:53:37.754Z,33.62
2019-06-27T10:58:41.165Z,33.12
2019-06-27T11:03:44.615Z,33.47
2019-06-27T11:08:48.023Z,34.11
2019-06-27T11:13:58.651Z,32.94
2019-06-27T11:18:56.616Z,34.46
2019-06-27T11:24:00.022Z,34.59
2019-06-27T11:29:03.433Z,32.98
2019-06-27T11:34:06.870Z,34.08
2019-06-27T11:39:10.290Z,31.72
2019-06-27T11:44:13.715Z,30.08
2019-06-27T11:49:17.127Z,31.62
2019-06-27T11:54:20.546Z,31.01
2019-06-27T11:59:23.974Z,28.34
2019-06-27T12:04:27.387Z,30.14
2019-06-27T12:09:30.845Z,30.12
2019-06-27T12:14:34.297Z,29.89
2019-06-27T12:19:37.725Z,31.96
2019-06-27T12:24:41.605Z,32.00
2019-06-27T12:29:45.041Z,30.31
2019-06-27T12:34:49.414Z,31.30
2019-06-27T12:39:52.915Z,32.27
2019-06-27T12:44:56.344Z,32.58
2019-06-27T12:50:02.539Z,32.08
2019-06-27T12:55:05.876Z,31.04
2019-06-27T13:00:10.167Z,30.51
2019-06-27T13:05:13.778Z,30.37
2019-06-27T13:10:18.391Z,31.21
2019-06-27T13:15:21.959Z,29.96
2019-06-27T13:20:25.509Z,30.06
2019-06-27T13:25:28.920Z,29.88
2019-06-27T13:30:32.501Z,28.33
2019-06-27T13:35:35.919Z,28.92
2019-06-27T13:40:39.360Z,28.04
2019-06-27T13:45:42.774Z,28.67
2019-06-27T13:50:46.206Z,31.11
2019-06-27T13:55:49.630Z,29.59
2019-06-27T14:00:53.076Z,28.39
2019-06-27T14:05:56.498Z,28.52
2019-06-27T14:10:59.933Z,28.46
2019-06-27T14:16:05.805Z,30.04
2019-06-27T14:21:08.509Z,29.18
2019-06-27T14:26:11.935Z,29.49
2019-06-27T14:31:15.440Z,29.38
2019-06-27T14:36:18.853Z,31.92
2019-06-27T14:41:22.264Z,30.22
2019-06-27T14:46:25.791Z,30.64
2019-06-27T14:51:29.219Z,29.73
2019-06-27T14:56:32.728Z,30.03
2019-06-27T15:01:36.135Z,28.73
2019-06-27T15:06:39.585Z,31.18
2019-06-27T15:11:43.016Z,31.41
2019-06-27T15:16:46.451Z,29.10
2019-06-27T15:21:49.902Z,29.48
2019-06-27T15:26:53.312Z,30.06
2019-06-27T15:31:56.750Z,31.09
2019-06-27T15:37:00.178Z,31.66
2019-06-27T15:42:03.627Z,31.99
2019-06-27T15:47:07.123Z,30.96
2019-06-27T15:52:10.564Z,30.34
2019-06-27T15:57:14.078Z,30.45
2019-06-27T16:02:17.506Z,30.85
2019-06-27T16:07:20.927Z,31.51
2019-06-27T16:12:24.603Z,31.04
2019-06-27T16:17:28.036Z,31.25
2019-06-27T16:22:31.551Z,31.79
2019-06-27T16:27:34.970Z,33.28
2019-06-27T16:32:38.400Z,34.69
2019-06-27T16:37:41.910Z,35.63
2019-06-27T16:42:45.340Z,38.23
2019-06-27T16:47:48.762Z,39.67
2019-06-27T16:52:52.217Z,38.95
2019-06-27T16:57:55.638Z,39.72
2019-06-27T17:02:59.074Z,38.53
2019-06-27T17:08:02.556Z,39.22
2019-06-27T17:13:05.965Z,40.39
2019-06-27T17:18:09.382Z,40.29
2019-06-27T17:23:12.815Z,41.45
2019-06-27T17:28:16.254Z,42.11
2019-06-27T17:33:19.657Z,42.51
2019-06-27T17:38:23.092Z,42.57
2019-06-27T17:43:26.531Z,43.33
2019-06-27T17:48:29.969Z,45.28
2019-06-27T17:53:33.409Z,45.62
2019-06-27T17:58:36.864Z,46.54
2019-06-27T18:03:40.311Z,47.17
2019-06-27T18:08:43.730Z,46.97
2019-06-27T18:13:47.264Z,46.53
2019-06-27T18:18:51.153Z,46.91
2019-06-27T18:23:54.736Z,48.28
2019-06-27T18:28:58.171Z,47.91
2019-06-27T18:34:01.591Z,47.93
2019-06-27T18:39:06.157Z,47.91
2019-06-27T18:44:09.583Z,48.81
2019-06-27T18:49:13.025Z,49.27
2019-06-27T18:54:16.448Z,48.35
2019-06-27T18:59:19.905Z,51.57
2019-06-27T19:04:23.343Z,49.51
2019-06-27T19:09:26.783Z,51.59
2019-06-27T19:14:30.214Z,49.97
2019-06-27T19:19:35.279Z,53.00
2019-06-27T19:24:49.608Z,50.91
2019-06-27T19:29:53.047Z,51.62
2019-06-27T19:34:56.472Z,52.48
2019-06-27T19:39:59.927Z,51.42
2019-06-27T19:45:03.991Z,51.77
2019-06-27T19:50:07.510Z,51.59
2019-06-27T19:55:11.546Z,52.53
2019-06-27T20:00:17.294Z,53.13
2019-06-27T20:05:20.800Z,52.98
2019-06-27T20:10:24.313Z,54.15
2019-06-27T20:15:27.771Z,54.10
2019-06-27T20:20:31.191Z,56.55
2019-06-27T20:25:34.594Z,56.42
2019-06-27T20:30:38.020Z,56.35
2019-06-27T20:35:41.995Z,57.02
2019-06-27T20:40:45.455Z,57.27
2019-06-27T20:45:49.081Z,56.88
2019-06-27T20:50:53.006Z,58.20
2019-06-27T20:55:56.448Z,59.17
2019-06-27T21:00:59.944Z,58.34
2019-06-27T21:06:03.427Z,58.31
2019-06-27T21:11:06.896Z,58.08
2019-06-27T21:16:10.336Z,58.25
2019-06-27T21:21:13.855Z,58.17
2019-06-27T21:26:18.425Z,59.36
2019-06-27T21:31:21.869Z,59.31
2019-06-27T21:36:25.275Z,59.91
2019-06-27T21:41:28.722Z,60.12
2019-06-27T21:46:32.143Z,59.66
2019-06-27T21:51:35.570Z,59.70
2019-06-27T21:56:38.983Z,59.83
2019-06-27T22:01:42.477Z,60.78
2019-06-27T22:06:45.928Z,60.91
2019-06-27T22:11:49.375Z,60.91
2019-06-27T22:16:52.800Z,60.99
2019-06-27T22:21:56.210Z,61.04
2019-06-27T22:26:59.731Z,60.61
2019-06-27T22:32:03.265Z,60.88
2019-06-27T22:37:07.223Z,61.95
2019-06-27T22:42:28.513Z,62.07
2019-06-27T22:47:50.762Z,62.28
2019-06-27T22:53:10.726Z,62.99
2019-06-27T22:58:14.193Z,64.00
2019-06-27T23:03:17.635Z,64.81
2019-06-27T23:08:21.158Z,64.37
2019-06-27T23:13:24.596Z,64.04
2019-06-27T23:18:28.131Z,64.73
2019-06-27T23:23:31.604Z,64.69
2019-06-27T23:28:35.009Z,65.50
2019-06-27T23:33:38.422Z,65.83
2019-06-27T23:38:41.841Z,66.25
2019-06-27T23:43:45.282Z,65.83
2019-06-27T23:48:48.718Z,66.65
2019-06-27T23:53:52.161Z,67.98
2019-06-27T23:58:55.618Z,67.17
